Time;durP1;ratioP1;P1;durP2;ratioP2;P2;SDS_P1;SDS_P2;PMS_P1;PMS_P2;Temp;Humidity;BMP_temperature;BMP_pressure;BME280_temperature;BME280_humidity;BME280_pressure;Samples;Min_cycle;Max_cycle;Signal;HPM_P1;HPM_P2
2023/04/02 00:01:44;;;;;;;0.30;0.30;;;;;;;8.27;66.73;96825.19;6147016;28;20245;-58
2023/04/02 00:05:15;;;;;;;0.77;0.30;;;;;;;8.48;65.46;96832.38;6153195;28;20245;-57
2023/04/02 00:08:21;;;;;;;0.20;0.20;;;;;;;8.40;66.44;96832.81;6151467;28;20233;-58
2023/04/02 00:11:36;;;;;;;0.47;0.40;;;;;;;8.38;66.27;96826.16;6146708;28;20238;-58
2023/04/02 00:14:38;;;;;;;0.50;0.30;;;;;;;8.28;67.70;96835.56;6145955;28;20647;-58
2023/04/02 00:17:40;;;;;;;0.50;0.20;;;;;;;8.16;68.11;96834.06;6155082;28;20289;-58
2023/04/02 00:21:17;;;;;;;0.20;0.20;;;;;;;8.04;68.69;96842.16;6145641;28;20235;-58
2023/04/02 00:24:21;;;;;;;0.20;0.20;;;;;;;8.26;67.63;96847.47;6122308;28;20235;-57
2023/04/02 00:27:23;;;;;;;0.30;0.30;;;;;;;8.21;67.80;96837.59;6149766;28;20678;-58
2023/04/02 00:30:25;;;;;;;0.20;0.20;;;;;;;7.95;69.37;96823.22;6146807;28;21016;-58
2023/04/02 00:33:30;;;;;;;1.30;0.30;;;;;;;8.07;68.45;96838.19;6148457;28;20248;-58
2023/04/02 00:36:33;;;;;;;0.30;0.30;;;;;;;8.20;68.07;96832.53;6146161;28;20594;-58
2023/04/02 00:39:40;;;;;;;0.30;0.30;;;;;;;8.15;67.69;96827.16;6127973;28;20320;-58
2023/04/02 00:42:43;;;;;;;0.97;0.30;;;;;;;8.16;68.10;96842.84;6146322;28;20328;-58
2023/04/02 00:45:49;;;;;;;1.20;0.30;;;;;;;8.15;68.00;96849.19;6149639;28;20327;-58
2023/04/02 00:48:55;;;;;;;0.50;0.40;;;;;;;8.21;67.57;96850.06;6150660;28;20242;-58
2023/04/02 00:52:20;;;;;;;0.87;0.20;;;;;;;8.18;68.88;96842.59;6146565;28;20234;-58
2023/04/02 00:55:49;;;;;;;1.43;0.50;;;;;;;8.11;68.23;96839.31;6136694;28;20241;-58
2023/04/02 00:58:53;;;;;;;0.30;0.27;;;;;;;8.00;68.60;96846.34;6148500;28;20381;-58
2023/04/02 01:02:21;;;;;;;0.30;0.30;;;;;;;7.92;69.66;96836.94;6159564;28;20230;-58
2023/04/02 01:05:23;;;;;;;1.23;0.23;;;;;;;7.89;68.72;96839.31;6150205;28;20235;-58
2023/04/02 01:08:55;;;;;;;0.40;0.30;;;;;;;7.85;69.66;96854.09;6146757;28;20637;-58
2023/04/02 01:12:12;;;;;;;0.20;0.20;;;;;;;7.98;68.82;96845.81;6150077;28;20238;-57
2023/04/02 01:15:20;;;;;;;1.47;0.30;;;;;;;7.91;69.38;96847.81;6167003;28;20251;-57
2023/04/02 01:18:52;;;;;;;0.57;0.30;;;;;;;8.12;68.40;96854.97;6144098;28;20248;-58
2023/04/02 01:22:12;;;;;;;0.20;0.20;;;;;;;8.15;68.11;96853.69;6149177;28;21038;-58
2023/04/02 01:25:34;;;;;;;0.40;0.40;;;;;;;8.14;68.03;96857.41;6139379;28;20329;-58
2023/04/02 01:29:09;;;;;;;0.20;0.20;;;;;;;7.96;69.26;96859.28;6136054;28;20245;-58
2023/04/02 01:32:15;;;;;;;0.50;0.30;;;;;;;7.90;69.57;96867.44;6149659;28;20242;-58
2023/04/02 01:35:18;;;;;;;0.63;0.50;;;;;;;7.84;70.12;96858.59;6144760;28;20593;-58
2023/04/02 01:38:28;;;;;;;0.20;0.20;;;;;;;8.13;68.41;96863.75;6146034;28;20233;-58
2023/04/02 01:41:46;;;;;;;1.43;0.47;;;;;;;7.84;69.28;96842.69;6145704;28;20242;-59
2023/04/02 01:44:59;;;;;;;0.40;0.40;;;;;;;8.06;69.07;96857.81;6146382;28;20325;-57
2023/04/02 01:48:11;;;;;;;0.30;0.30;;;;;;;7.95;70.02;96862.19;6142823;28;20242;-48
2023/04/02 01:51:33;;;;;;;0.20;0.17;;;;;;;7.93;69.90;96848.34;6126466;28;20229;-58
2023/04/02 01:54:40;;;;;;;0.30;0.30;;;;;;;7.86;69.38;96840.59;6139510;28;20262;-58
2023/04/02 01:57:48;;;;;;;0.20;0.20;;;;;;;7.98;68.83;96838.66;6115904;28;20335;-59
2023/04/02 02:01:01;;;;;;;0.73;0.20;;;;;;;8.00;69.20;96849.81;6151350;28;20240;-57
2023/04/02 02:04:06;;;;;;;0.40;0.20;;;;;;;8.00;69.18;96852.44;6144562;28;20235;-58
2023/04/02 02:07:17;;;;;;;0.30;0.30;;;;;;;7.92;69.67;96860.81;6144543;28;20358;-58
2023/04/02 02:10:27;;;;;;;0.30;0.20;;;;;;;7.90;69.78;96857.63;6148000;28;20242;-58
2023/04/02 02:13:30;;;;;;;0.73;0.30;;;;;;;7.91;69.54;96853.13;6144245;28;20373;-58
2023/04/02 02:16:40;;;;;;;0.17;0.17;;;;;;;7.88;69.31;96853.59;6128114;28;20230;-58
2023/04/02 02:19:50;;;;;;;0.30;0.30;;;;;;;7.81;70.42;96869.69;6130346;28;20305;-58
2023/04/02 02:22:55;;;;;;;0.33;0.33;;;;;;;7.98;69.45;96870.47;6145018;28;20237;-58
2023/04/02 02:25:57;;;;;;;0.33;0.23;;;;;;;8.01;69.59;96866.50;6145152;28;20237;-58
2023/04/02 02:29:02;;;;;;;0.20;0.20;;;;;;;7.91;70.07;96861.88;6144006;28;20234;-58
2023/04/02 02:32:08;;;;;;;0.23;0.20;;;;;;;7.81;69.53;96829.91;6143603;28;20237;-57
2023/04/02 02:35:20;;;;;;;0.30;0.30;;;;;;;8.10;69.35;96872.22;6164108;28;20231;-58
2023/04/02 02:38:33;;;;;;;0.43;0.20;;;;;;;7.94;69.83;96864.06;6130771;28;20230;-58
2023/04/02 02:41:49;;;;;;;0.13;0.13;;;;;;;7.98;70.41;96869.66;6163050;28;20238;-58
2023/04/02 02:44:54;;;;;;;0.30;0.20;;;;;;;8.04;69.56;96867.88;6126686;28;20248;-59
2023/04/02 02:47:58;;;;;;;0.20;0.20;;;;;;;7.90;70.54;96870.88;6150247;28;20677;-59
2023/04/02 02:51:06;;;;;;;0.20;0.20;;;;;;;7.92;69.89;96866.13;6144372;28;20237;-59
2023/04/02 02:54:09;;;;;;;1.17;0.40;;;;;;;7.99;69.73;96866.75;6144838;28;20802;-59
2023/04/02 02:57:19;;;;;;;0.20;0.20;;;;;;;7.95;69.68;96860.34;6142270;28;20224;-59
2023/04/02 03:00:24;;;;;;;1.13;0.40;;;;;;;7.83;70.33;96872.09;6145630;28;20234;-59
2023/04/02 03:03:31;;;;;;;0.20;0.20;;;;;;;7.76;70.84;96872.28;6146084;28;20230;-59
2023/04/02 03:06:35;;;;;;;0.80;0.40;;;;;;;7.47;71.09;96834.47;6146618;28;20258;-59
2023/04/02 03:10:05;;;;;;;0.20;0.20;;;;;;;7.65;71.65;96881.13;6148024;28;20623;-58
2023/04/02 03:13:22;;;;;;;0.33;0.33;;;;;;;7.72;71.58;96860.53;6167082;28;20234;-59
2023/04/02 03:16:35;;;;;;;0.37;0.30;;;;;;;7.69;71.72;96876.94;6147007;28;20241;-57
2023/04/02 03:19:52;;;;;;;2.00;0.37;;;;;;;7.57;72.32;96874.38;6144131;28;20234;-59
2023/04/02 03:23:20;;;;;;;1.10;0.30;;;;;;;7.53;72.72;96880.41;6162698;28;20324;-58
2023/04/02 03:27:00;;;;;;;0.43;0.30;;;;;;;7.78;71.80;96864.06;6152652;28;20241;-59
2023/04/02 03:30:27;;;;;;;0.53;0.40;;;;;;;7.80;71.44;96875.25;6129453;28;20234;-59
2023/04/02 03:33:58;;;;;;;0.33;0.30;;;;;;;7.65;73.17;96878.47;6131963;28;20818;-59
2023/04/02 03:37:20;;;;;;;0.97;0.20;;;;;;;7.56;73.81;96890.53;6114650;28;20787;-59
2023/04/02 03:40:32;;;;;;;0.50;0.33;;;;;;;7.53;73.56;96878.53;6128809;28;20234;-59
2023/04/02 03:43:45;;;;;;;0.30;0.30;;;;;;;7.50;74.34;96873.75;6113077;28;20245;-59
2023/04/02 03:46:56;;;;;;;0.40;0.40;;;;;;;7.49;74.07;96891.50;6116532;28;20333;-59
2023/04/02 03:50:13;;;;;;;0.73;0.60;;;;;;;7.68;73.00;96893.88;6142622;28;20244;-58
2023/04/02 03:53:16;;;;;;;0.70;0.50;;;;;;;7.56;74.05;96891.31;6148080;28;20305;-59
2023/04/02 03:56:26;;;;;;;1.60;0.63;;;;;;;7.74;72.50;96900.88;6115749;28;20229;-59
2023/04/02 03:59:40;;;;;;;0.53;0.50;;;;;;;7.77;72.41;96895.06;6117892;28;20246;-59
2023/04/02 04:02:49;;;;;;;0.47;0.43;;;;;;;7.68;73.11;96891.22;6126357;28;20262;-59
2023/04/02 04:06:04;;;;;;;0.80;0.60;;;;;;;7.42;74.09;96876.78;6144822;28;20230;-59
2023/04/02 04:09:08;;;;;;;0.73;0.70;;;;;;;7.72;72.46;96903.75;6131015;28;20576;-59
2023/04/02 04:12:31;;;;;;;0.47;0.47;;;;;;;7.78;71.85;96899.34;6150050;28;20235;-58
2023/04/02 04:15:40;;;;;;;1.03;0.53;;;;;;;7.87;72.15;96905.81;6145158;28;20237;-59
2023/04/02 04:18:51;;;;;;;1.67;0.50;;;;;;;7.76;73.08;96923.44;6147026;28;20260;-59
2023/04/02 04:22:14;;;;;;;1.17;0.63;;;;;;;7.87;71.84;96924.38;6129173;28;20253;-59
2023/04/02 04:25:32;;;;;;;0.90;0.60;;;;;;;7.80;73.33;96929.06;6146889;28;20237;-58
2023/04/02 04:28:57;;;;;;;1.23;0.80;;;;;;;7.85;72.87;96933.66;6161275;28;20313;-59
2023/04/02 04:32:31;;;;;;;1.90;0.60;;;;;;;7.75;73.15;96934.31;6147163;28;20246;-59
2023/04/02 04:35:47;;;;;;;1.00;0.70;;;;;;;7.55;73.47;96894.22;6129467;28;20718;-59
2023/04/02 04:38:54;;;;;;;1.03;0.60;;;;;;;7.85;72.50;96938.94;6145308;28;20253;-59
2023/04/02 04:42:01;;;;;;;0.80;0.57;;;;;;;7.80;73.46;96941.53;6145061;28;20236;-59
2023/04/02 04:45:22;;;;;;;0.50;0.50;;;;;;;7.76;73.77;96952.59;6148714;28;20238;-59
2023/04/02 04:48:47;;;;;;;1.10;0.70;;;;;;;7.76;73.79;96954.47;6137080;28;20655;-58
2023/04/02 04:52:13;;;;;;;0.63;0.63;;;;;;;7.71;73.93;96960.47;6151815;28;20809;-59
2023/04/02 04:55:37;;;;;;;0.60;0.60;;;;;;;7.79;73.41;96959.28;6151950;28;20234;-59
2023/04/02 04:58:47;;;;;;;2.73;1.00;;;;;;;7.85;72.65;96963.63;6152310;28;20237;-58
2023/04/02 05:02:25;;;;;;;1.87;0.60;;;;;;;7.85;73.21;96965.47;6130280;28;20671;-59
2023/04/02 05:05:32;;;;;;;1.93;0.90;;;;;;;7.92;72.50;96972.19;6147620;28;20368;-59
2023/04/02 05:08:43;;;;;;;0.70;0.50;;;;;;;8.07;71.66;96968.19;6138537;28;20588;-58
2023/04/02 05:11:54;;;;;;;1.63;0.80;;;;;;;7.84;72.43;96943.47;6129887;28;20222;-59
2023/04/02 05:15:03;;;;;;;2.47;0.70;;;;;;;8.00;72.88;96979.75;6127861;28;20237;-59
2023/04/02 05:18:31;;;;;;;1.00;0.50;;;;;;;8.05;72.19;96987.00;6141113;28;20323;-59
2023/04/02 05:21:48;;;;;;;0.60;0.60;;;;;;;8.07;71.94;96992.84;6167293;28;20218;-59
2023/04/02 05:25:26;;;;;;;1.83;0.70;;;;;;;8.01;72.17;96988.53;6156274;28;20256;-58
2023/04/02 05:28:46;;;;;;;2.40;0.90;;;;;;;8.00;72.30;97000.19;6129844;28;20295;-59
2023/04/02 05:32:12;;;;;;;0.80;0.80;;;;;;;8.01;72.39;96994.63;6132804;28;20242;-59
2023/04/02 05:35:21;;;;;;;1.80;0.80;;;;;;;8.00;73.17;97000.19;6160241;28;20239;-59
2023/04/02 05:38:31;;;;;;;0.90;0.87;;;;;;;7.98;73.72;96992.47;6144510;28;20376;-59
2023/04/02 05:41:41;;;;;;;1.67;1.10;;;;;;;7.97;73.62;96998.00;6145121;28;20458;-59
2023/04/02 05:45:22;;;;;;;2.97;0.90;;;;;;;8.00;73.69;97006.28;6127722;28;20370;-59
2023/04/02 05:48:34;;;;;;;0.80;0.80;;;;;;;8.03;73.84;96997.06;6147533;28;20234;-59
2023/04/02 05:51:49;;;;;;;1.17;1.00;;;;;;;8.04;74.41;97003.97;6127087;28;20313;-59
2023/04/02 05:54:57;;;;;;;0.93;0.93;;;;;;;8.06;74.60;97004.50;6149612;28;20360;-59
2023/04/02 05:58:26;;;;;;;1.07;0.97;;;;;;;8.08;74.06;97006.91;6126982;28;20328;-59
2023/04/02 06:01:54;;;;;;;1.67;1.00;;;;;;;8.22;72.51;96997.56;6142135;28;20315;-59
2023/04/02 06:05:12;;;;;;;1.03;0.93;;;;;;;8.41;71.59;97012.22;6133925;28;20715;-59
2023/04/02 06:08:21;;;;;;;1.43;0.90;;;;;;;7.96;74.03;96970.69;6127580;28;20226;-58
2023/04/02 06:11:35;;;;;;;0.77;0.77;;;;;;;8.22;73.44;97019.59;6147135;28;20614;-59
2023/04/02 06:14:38;;;;;;;1.10;0.60;;;;;;;8.15;72.55;96996.97;6162686;28;20317;-59
2023/04/02 06:17:50;;;;;;;2.60;0.60;;;;;;;8.30;74.01;97021.06;6143193;28;20276;-59
2023/04/02 06:20:53;;;;;;;1.53;0.60;;;;;;;8.23;73.73;96999.22;6125749;28;20230;-59
2023/04/02 06:24:01;;;;;;;0.97;0.53;;;;;;;8.41;73.35;97028.13;6144914;28;20269;-59
2023/04/02 06:27:07;;;;;;;2.23;0.60;;;;;;;8.55;73.14;97028.59;6130588;28;20245;-59
2023/04/02 06:30:18;;;;;;;0.60;0.50;;;;;;;8.40;73.67;97037.16;6133906;28;20221;-58
2023/04/02 06:33:22;;;;;;;1.07;0.70;;;;;;;8.44;74.21;97045.44;6138417;28;20230;-59
2023/04/02 06:36:27;;;;;;;1.90;0.53;;;;;;;8.46;74.27;97038.81;6145301;28;20229;-59
2023/04/02 06:39:35;;;;;;;0.60;0.60;;;;;;;8.27;73.94;97018.88;6127780;28;20482;-59
2023/04/02 06:42:42;;;;;;;0.50;0.40;;;;;;;8.39;76.02;97045.38;6126953;28;20230;-59
2023/04/02 06:46:33;;;;;;;1.33;0.70;;;;;;;8.41;76.03;97052.03;6156047;28;20284;-59
2023/04/02 06:49:58;;;;;;;0.40;0.40;;;;;;;8.56;72.83;97043.47;6144780;28;20230;-59
2023/04/02 06:53:07;;;;;;;1.57;0.70;;;;;;;8.65;73.15;97059.81;6151787;28;20241;-59
2023/04/02 06:56:40;;;;;;;0.90;0.70;;;;;;;8.51;73.96;97044.22;6143898;28;20233;-59
2023/04/02 06:59:47;;;;;;;1.90;0.50;;;;;;;8.49;74.51;97048.97;6161773;28;20435;-59
2023/04/02 07:02:54;;;;;;;0.37;0.30;;;;;;;8.59;74.62;97050.97;6125603;28;20243;-59
2023/04/02 07:06:00;;;;;;;0.80;0.60;;;;;;;8.90;71.88;97049.50;6143725;28;20242;-59
2023/04/02 07:09:04;;;;;;;0.93;0.50;;;;;;;8.80;72.72;97057.34;6127494;28;20230;-58
2023/04/02 07:12:14;;;;;;;1.20;0.70;;;;;;;8.83;72.94;97059.53;6143643;28;20211;-58
2023/04/02 07:15:18;;;;;;;0.53;0.50;;;;;;;8.80;73.19;97054.69;6143256;28;20227;-59
2023/04/02 07:18:23;;;;;;;0.80;0.80;;;;;;;8.87;72.45;97058.00;6140080;28;20665;-59
2023/04/02 07:21:26;;;;;;;1.90;0.97;;;;;;;9.09;71.48;97054.53;6146123;28;20237;-59
2023/04/02 07:24:29;;;;;;;1.10;0.70;;;;;;;9.01;71.60;97059.25;6129522;28;20237;-59
2023/04/02 07:27:31;;;;;;;0.70;0.70;;;;;;;8.78;72.20;97024.94;6143473;28;20241;-59
2023/04/02 07:30:34;;;;;;;1.00;0.80;;;;;;;9.01;72.54;97035.34;6125491;28;20257;-60
2023/04/02 07:33:36;;;;;;;1.23;1.13;;;;;;;9.27;70.19;97059.53;6144741;28;20281;-59
2023/04/02 07:36:38;;;;;;;1.20;1.10;;;;;;;9.19;70.97;97065.28;6144111;28;20711;-60
2023/04/02 07:39:41;;;;;;;1.13;0.80;;;;;;;9.26;71.85;97073.84;6143202;28;20237;-60
2023/04/02 07:42:44;;;;;;;1.17;0.90;;;;;;;9.27;71.84;97084.25;6144077;28;20324;-59
2023/04/02 07:45:46;;;;;;;0.60;0.60;;;;;;;9.34;71.12;97075.28;6142838;28;20235;-59
2023/04/02 07:48:48;;;;;;;1.17;0.67;;;;;;;9.36;70.21;97063.38;6142584;28;20609;-59
2023/04/02 07:51:50;;;;;;;0.50;0.50;;;;;;;9.51;68.54;97084.00;6142927;28;20251;-59
2023/04/02 07:54:53;;;;;;;0.80;0.80;;;;;;;9.38;71.20;97084.38;6129467;28;20237;-60
2023/04/02 07:57:58;;;;;;;0.47;0.40;;;;;;;9.36;70.69;97099.75;6153321;28;20230;-60
2023/04/02 08:01:02;;;;;;;2.30;0.63;;;;;;;9.56;70.42;97103.47;6153268;28;20222;-60
2023/04/02 08:04:06;;;;;;;2.07;0.70;;;;;;;9.42;71.88;97106.75;6149265;28;20762;-56
2023/04/02 08:07:09;;;;;;;0.43;0.40;;;;;;;9.32;71.00;97096.81;6146016;28;20245;-60
2023/04/02 08:10:11;;;;;;;0.67;0.67;;;;;;;9.29;71.71;97122.03;6146296;28;20274;-59
2023/04/02 08:13:15;;;;;;;0.67;0.60;;;;;;;9.34;71.58;97126.59;6146318;28;20239;-59
2023/04/02 08:16:17;;;;;;;0.60;0.40;;;;;;;9.40;71.12;97122.13;6149694;28;20266;-59
2023/04/02 08:19:19;;;;;;;0.60;0.60;;;;;;;9.44;72.95;97125.91;6144536;28;20247;-59
2023/04/02 08:22:21;;;;;;;0.70;0.50;;;;;;;9.50;73.03;97120.41;6144234;28;20242;-60
2023/04/02 08:25:23;;;;;;;0.73;0.40;;;;;;;9.59;71.87;97120.78;6148378;28;20260;-59
2023/04/02 08:28:25;;;;;;;1.20;0.60;;;;;;;9.52;71.95;97126.28;6161540;28;20330;-60
2023/04/02 08:31:29;;;;;;;0.93;0.50;;;;;;;9.29;73.10;97113.25;6149651;28;20251;-60
2023/04/02 08:34:31;;;;;;;1.13;0.73;;;;;;;9.38;75.06;97133.03;6145431;28;20384;-60
2023/04/02 08:37:33;;;;;;;1.17;0.60;;;;;;;9.37;74.64;97134.09;6146533;28;20707;-58
2023/04/02 08:40:38;;;;;;;1.47;0.57;;;;;;;9.43;74.23;97135.75;6146854;28;20271;-57
2023/04/02 08:44:05;;;;;;;1.40;0.67;;;;;;;9.51;74.18;97135.31;6150373;28;20230;-57
2023/04/02 08:47:09;;;;;;;0.70;0.60;;;;;;;9.66;74.76;97155.16;6138338;28;20278;-56
2023/04/02 08:50:29;;;;;;;0.50;0.50;;;;;;;9.37;73.07;97142.06;6146026;28;20914;-56
2023/04/02 08:53:38;;;;;;;1.17;1.07;;;;;;;9.24;74.24;97137.91;6152837;28;20244;-57
2023/04/02 08:56:46;;;;;;;0.60;0.60;;;;;;;9.37;71.06;97151.91;6145261;28;20314;-56
2023/04/02 08:59:55;;;;;;;2.93;1.10;;;;;;;9.29;72.32;97166.41;6150642;28;20645;-56
2023/04/02 09:03:05;;;;;;;0.47;0.47;;;;;;;9.21;72.02;97162.34;6144628;28;20250;-57
2023/04/02 09:06:11;;;;;;;0.70;0.67;;;;;;;9.32;72.60;97163.25;6145477;28;20354;-56
2023/04/02 09:09:17;;;;;;;8.17;7.00;;;;;;;9.47;72.99;97165.31;6145479;28;20625;-56
2023/04/02 09:12:25;;;;;;;0.83;0.80;;;;;;;9.63;71.79;97155.66;6151763;28;20623;-56
2023/04/02 09:15:34;;;;;;;1.30;1.13;;;;;;;9.62;72.83;97170.00;6151212;28;20518;-56
2023/04/02 09:18:38;;;;;;;0.77;0.60;;;;;;;9.57;73.59;97162.78;6142832;28;20248;-56
2023/04/02 09:21:51;;;;;;;1.10;0.80;;;;;;;9.80;73.50;97196.28;6151721;28;20234;-57
2023/04/02 09:24:56;;;;;;;0.70;0.70;;;;;;;10.06;71.20;97187.53;6144435;28;20223;-56
2023/04/02 09:28:04;;;;;;;1.40;0.90;;;;;;;9.98;72.06;97185.31;6152466;28;20621;-56
2023/04/02 09:31:42;;;;;;;0.90;0.80;;;;;;;9.83;71.28;97195.78;6148325;28;20262;-56
2023/04/02 09:34:44;;;;;;;1.00;0.73;;;;;;;9.57;73.45;97203.47;6148646;28;20333;-57
2023/04/02 09:37:47;;;;;;;1.20;0.60;;;;;;;9.52;72.71;97197.28;6134618;28;20276;-55
2023/04/02 09:40:54;;;;;;;2.20;0.80;;;;;;;9.20;74.45;97210.38;6149885;28;20234;-57
2023/04/02 09:44:25;;;;;;;1.03;0.67;;;;;;;8.97;75.96;97212.22;6156581;28;20296;-57
2023/04/02 09:47:30;;;;;;;1.10;0.80;;;;;;;8.83;75.08;97221.53;6148140;28;20249;-55
2023/04/02 09:50:33;;;;;;;0.83;0.73;;;;;;;9.04;73.53;97217.34;6145027;28;20270;-55
2023/04/02 09:53:38;;;;;;;0.63;0.63;;;;;;;8.76;75.46;97228.84;6151490;28;20609;-54
2023/04/02 09:57:03;;;;;;;0.83;0.83;;;;;;;8.65;75.15;97229.72;6150885;28;20244;-52
2023/04/02 10:00:26;;;;;;;1.43;1.20;;;;;;;8.49;77.31;97216.22;6150133;28;20239;-55
2023/04/02 10:03:33;;;;;;;1.03;1.00;;;;;;;8.45;77.30;97233.66;6148167;28;20238;-55
2023/04/02 10:06:36;;;;;;;0.90;0.90;;;;;;;8.49;78.03;97232.13;6147864;28;20238;-53
2023/04/02 10:09:38;;;;;;;1.67;1.57;;;;;;;8.57;78.70;97228.28;6146792;28;20253;-55
2023/04/02 10:12:42;;;;;;;1.17;1.00;;;;;;;8.49;77.90;97184.34;6143413;28;20242;-55
2023/04/02 10:15:53;;;;;;;0.87;0.80;;;;;;;8.82;77.40;97222.59;6143569;28;20228;-53
2023/04/02 10:19:06;;;;;;;1.63;1.10;;;;;;;8.89;76.18;97225.88;6148041;28;20241;-54
2023/04/02 10:22:21;;;;;;;0.90;0.80;;;;;;;9.07;76.02;97224.03;6146625;28;20229;-52
2023/04/02 10:25:30;;;;;;;1.77;1.00;;;;;;;9.05;76.58;97225.06;6153570;28;20606;-52
2023/04/02 10:29:07;;;;;;;1.33;0.97;;;;;;;9.19;74.24;97222.88;6147016;28;20238;-52
2023/04/02 10:32:12;;;;;;;1.20;1.07;;;;;;;9.27;74.24;97225.13;6148758;28;20258;-54
2023/04/02 10:35:32;;;;;;;0.80;0.80;;;;;;;9.22;74.69;97230.38;6150846;28;20222;-54
2023/04/02 10:38:50;;;;;;;1.33;1.23;;;;;;;9.30;77.17;97221.97;6138696;28;20250;-54
2023/04/02 10:41:59;;;;;;;1.00;0.87;;;;;;;9.43;74.58;97233.31;6149965;28;20269;-53
2023/04/02 10:45:12;;;;;;;1.03;0.97;;;;;;;9.55;75.88;97231.34;6146359;28;20277;-53
2023/04/02 10:48:32;;;;;;;1.00;0.90;;;;;;;9.75;75.07;97228.97;6149082;28;20740;-51
2023/04/02 10:51:43;;;;;;;1.23;0.87;;;;;;;9.86;75.02;97229.88;6148753;28;20240;-52
2023/04/02 10:54:57;;;;;;;0.80;0.80;;;;;;;10.00;72.78;97235.59;6147489;28;20231;-51
2023/04/02 10:58:06;;;;;;;0.87;0.87;;;;;;;10.19;71.62;97244.06;6143491;28;20231;-51
2023/04/02 11:01:16;;;;;;;1.00;0.90;;;;;;;9.91;72.86;97243.25;6151048;28;20238;-52
2023/04/02 11:04:43;;;;;;;0.80;0.80;;;;;;;10.13;72.93;97245.09;6153913;28;20222;-54
2023/04/02 11:11:18;;;;;;;0.77;0.70;;;;;;;10.41;72.43;97250.22;6142769;28;20230;-54
2023/04/02 11:14:25;;;;;;;0.63;0.60;;;;;;;10.50;67.89;97245.25;6151641;28;20262;-51
2023/04/02 11:17:27;;;;;;;1.80;0.70;;;;;;;10.42;70.22;97246.50;6152914;28;20382;-51
2023/04/02 11:20:48;;;;;;;1.07;0.63;;;;;;;10.56;69.02;97258.34;6155147;28;20241;-52
2023/04/02 11:23:57;;;;;;;1.20;0.50;;;;;;;10.18;69.13;97253.13;6154758;28;20222;-52
2023/04/02 11:27:08;;;;;;;0.60;0.40;;;;;;;10.28;70.32;97256.72;6159865;28;20275;-51
2023/04/02 11:30:17;;;;;;;0.57;0.57;;;;;;;10.38;70.05;97268.53;6159548;28;20880;-52
2023/04/02 11:33:32;;;;;;;0.50;0.50;;;;;;;10.34;69.04;97284.19;6143453;28;20371;-51
2023/04/02 11:36:49;;;;;;;0.77;0.53;;;;;;;10.09;70.63;97271.38;6160069;28;20234;-55
2023/04/02 11:39:57;;;;;;;0.97;0.60;;;;;;;10.01;69.30;97275.28;6159776;28;20671;-54
2023/04/02 11:43:35;;;;;;;0.53;0.53;;;;;;;10.03;70.62;97273.19;6161455;28;20227;-50
2023/04/02 11:46:40;;;;;;;0.40;0.40;;;;;;;10.07;69.89;97276.16;6158498;28;20346;-50
2023/04/02 11:50:02;;;;;;;0.80;0.80;;;;;;;10.19;69.87;97284.00;6158602;28;20234;-49
2023/04/02 11:53:11;;;;;;;0.47;0.40;;;;;;;9.94;69.41;97282.66;6162282;28;20237;-49
2023/04/02 11:56:42;;;;;;;0.30;0.23;;;;;;;9.81;70.29;97291.81;6154436;28;20230;-49
2023/04/02 11:59:56;;;;;;;0.67;0.50;;;;;;;9.71;69.56;97298.84;6160053;28;20231;-50
2023/04/02 12:03:24;;;;;;;0.80;0.50;;;;;;;9.64;70.90;97307.00;6140862;28;20258;-51
2023/04/02 12:06:48;;;;;;;0.33;0.30;;;;;;;9.62;72.18;97317.09;6156868;28;20238;-51
2023/04/02 12:09:54;;;;;;;0.70;0.50;;;;;;;9.72;71.77;97313.75;6127182;28;20240;-52
2023/04/02 12:12:56;;;;;;;0.30;0.30;;;;;;;9.74;71.81;97322.28;6110758;29;20294;-50
2023/04/02 12:15:58;;;;;;;0.30;0.30;;;;;;;9.27;74.81;97328.00;6110651;29;20239;-50
2023/04/02 12:19:06;;;;;;;0.57;0.40;;;;;;;9.07;75.38;97346.25;6109874;29;20789;-52
2023/04/02 12:22:19;;;;;;;1.00;0.40;;;;;;;8.91;76.70;97356.59;6110783;29;20706;-51
2023/04/02 12:25:39;;;;;;;0.60;0.60;;;;;;;8.83;78.19;97342.91;6110855;29;20714;-51
2023/04/02 12:28:45;;;;;;;1.43;0.40;;;;;;;8.86;77.96;97376.97;6110774;29;20239;-55
2023/04/02 12:31:48;;;;;;;2.83;0.47;;;;;;;8.64;75.83;97356.38;6095086;29;20410;-50
2023/04/02 12:34:52;;;;;;;0.40;0.40;;;;;;;8.60;79.19;97384.44;6093809;29;20246;-50
2023/04/02 12:37:55;;;;;;;0.60;0.60;;;;;;;8.55;76.03;97394.16;6093578;29;20325;-51
2023/04/02 12:41:17;;;;;;;1.10;0.60;;;;;;;8.12;77.40;97392.72;6110442;29;20235;-51
2023/04/02 12:44:22;;;;;;;1.13;0.70;;;;;;;7.92;77.78;97396.53;6110670;29;20713;-51
2023/04/02 12:47:26;;;;;;;0.80;0.80;;;;;;;7.70;77.70;97366.34;6111443;29;20271;-51
2023/04/02 12:50:28;;;;;;;0.80;0.70;;;;;;;7.85;77.39;97392.41;6110357;29;20235;-41
2023/04/02 12:53:35;;;;;;;0.70;0.70;;;;;;;7.81;78.07;97396.56;6109961;29;20238;-41
2023/04/02 12:56:37;;;;;;;1.67;0.70;;;;;;;7.80;79.01;97398.41;6109790;29;20259;-40
2023/04/02 12:59:41;;;;;;;1.97;1.10;;;;;;;7.73;78.86;97398.53;6113900;29;20250;-41
2023/04/02 13:02:47;;;;;;;1.07;0.97;;;;;;;7.63;78.76;97400.09;6114452;29;20722;-41
2023/04/02 13:05:54;;;;;;;1.20;0.97;;;;;;;7.57;79.56;97412.44;6109089;29;20852;-42
2023/04/02 13:08:59;;;;;;;2.00;1.10;;;;;;;7.43;81.06;97397.78;6109603;29;20251;-41
2023/04/02 13:12:02;;;;;;;1.50;0.97;;;;;;;7.60;80.89;97427.09;6109599;29;20576;-42
2023/04/02 13:15:07;;;;;;;2.13;1.30;;;;;;;7.53;81.72;97423.72;6073488;29;20211;-41
2023/04/02 13:18:12;;;;;;;0.80;0.80;;;;;;;7.50;81.87;97431.13;6108103;29;20246;-41
2023/04/02 13:21:18;;;;;;;2.20;1.00;;;;;;;7.46;81.94;97426.50;6109825;29;20231;-40
2023/04/02 13:24:23;;;;;;;1.97;1.13;;;;;;;7.18;81.82;97390.81;6110000;29;20231;-41
2023/04/02 13:27:25;;;;;;;1.43;1.00;;;;;;;7.36;79.02;97428.91;6108586;29;20235;-41
2023/04/02 13:30:28;;;;;;;0.63;0.63;;;;;;;7.28;79.73;97437.97;6109380;29;20288;-40
2023/04/02 13:33:30;;;;;;;0.83;0.83;;;;;;;7.15;81.41;97441.63;6108776;29;20634;-42
2023/04/02 13:36:32;;;;;;;1.10;0.90;;;;;;;7.15;81.43;97444.28;6108420;29;20239;-46
2023/04/02 13:39:34;;;;;;;1.67;1.10;;;;;;;7.16;81.96;97455.69;6109288;29;20334;-45
2023/04/02 13:42:37;;;;;;;1.63;0.90;;;;;;;7.19;81.32;97465.81;6109201;29;20749;-43
2023/04/02 13:45:41;;;;;;;1.20;0.90;;;;;;;7.15;81.71;97457.53;6092996;29;20247;-42
2023/04/02 13:48:43;;;;;;;1.40;1.00;;;;;;;7.15;80.24;97460.16;6105035;29;20270;-42
2023/04/02 13:51:56;;;;;;;0.93;0.90;;;;;;;7.02;81.06;97470.13;6109793;29;20265;-43
2023/04/02 13:55:00;;;;;;;1.20;1.00;;;;;;;6.91;79.61;97467.22;6109629;29;20246;-44
2023/04/02 13:58:04;;;;;;;1.47;1.10;;;;;;;6.92;80.44;97470.66;6108603;29;20231;-44
2023/04/02 14:01:06;;;;;;;1.33;1.10;;;;;;;7.03;81.61;97477.84;6109053;29;20241;-45
2023/04/02 14:04:12;;;;;;;2.03;1.33;;;;;;;7.17;79.92;97473.97;6108619;29;20282;-44
2023/04/02 14:07:33;;;;;;;1.93;1.30;;;;;;;7.16;81.16;97469.72;6092045;29;20294;-44
2023/04/02 14:11:16;;;;;;;1.93;1.40;;;;;;;7.24;79.28;97477.38;6125070;29;20267;-44
2023/04/02 14:14:27;;;;;;;1.13;1.00;;;;;;;7.31;79.12;97474.63;6129539;29;20229;-43
2023/04/02 14:17:54;;;;;;;1.10;1.00;;;;;;;7.47;79.44;97470.50;6132310;29;20301;-43
2023/04/02 14:21:10;;;;;;;2.57;1.27;;;;;;;7.57;79.49;97472.59;6129150;29;20242;-43
2023/04/02 14:24:25;;;;;;;1.07;0.80;;;;;;;7.85;79.56;97475.41;6127907;28;20270;-43
2023/04/02 14:27:52;;;;;;;1.30;1.10;;;;;;;7.92;78.23;97465.50;6131474;29;20318;-44
2023/04/02 14:31:05;;;;;;;2.23;1.27;;;;;;;7.92;77.96;97468.16;6130314;29;20600;-42
2023/04/02 14:34:40;;;;;;;1.40;1.30;;;;;;;7.81;78.07;97476.91;6129301;29;20669;-44
2023/04/02 14:38:36;;;;;;;1.37;1.20;;;;;;;7.65;79.10;97482.88;6131902;29;20830;-45
2023/04/02 14:41:57;;;;;;;1.37;1.27;;;;;;;7.55;79.51;97488.75;6063380;29;20232;-45
2023/04/02 14:45:32;;;;;;;1.60;1.50;;;;;;;7.50;80.55;97493.91;6055740;29;20268;-46
2023/04/02 14:48:44;;;;;;;2.07;1.80;;;;;;;7.36;80.20;97492.50;6057035;29;20300;-48
2023/04/02 14:52:03;;;;;;;2.63;1.80;;;;;;;7.21;80.21;97477.00;6061676;29;20239;-47
2023/04/02 14:55:39;;;;;;;2.37;2.17;;;;;;;7.23;80.81;97501.41;6100120;23;20261;-92
2023/04/02 14:58:47;;;;;;;2.30;2.10;;;;;;;7.21;80.03;97501.66;6104830;29;20232;-90
2023/04/02 15:01:57;;;;;;;2.07;1.97;;;;;;;6.76;79.81;97427.09;6110999;29;20322;-92
2023/04/02 15:05:10;;;;;;;2.57;2.37;;;;;;;5.69;80.12;97265.34;6107883;29;20270;-91
2023/04/02 15:08:46;;;;;;;2.50;2.30;;;;;;;7.07;80.84;97502.84;6108836;29;20319;-91
2023/04/02 15:12:16;;;;;;;2.53;2.33;;;;;;;6.30;80.66;97414.38;6095949;29;20243;-92
2023/04/02 15:15:35;;;;;;;2.60;2.40;;;;;;;7.05;81.41;97515.53;6095954;29;20230;-92
2023/04/02 15:18:42;;;;;;;2.73;2.50;;;;;;;7.14;81.27;97511.53;6070328;29;20265;-91